sensor_id;sensor_type;location;lat;lon;timestamp;pressure;altitude;pressure_sealevel;temperature;humidity
18795;BME280;29610;49.022;12.114;2023-05-02T00:01:04;97720.38;;;9.57;100.00
18795;BME280;29610;49.022;12.114;2023-05-02T00:03:53;97720.06;;;9.59;100.00
18795;BME280;29610;49.022;12.114;2023-05-02T00:06:43;97729.56;;;9.48;100.00
18795;BME280;29610;49.022;12.114;2023-05-02T00:09:33;97730.19;;;9.36;100.00
18795;BME280;29610;49.022;12.114;2023-05-02T00:12:22;97730.84;;;9.11;100.00
18795;BME280;29610;49.022;12.114;2023-05-02T00:15:12;97732.50;;;8.99;100.00
18795;BME280;29610;49.022;12.114;2023-05-02T00:18:01;97736.66;;;8.96;100.00
18795;BME280;29610;49.022;12.114;2023-05-02T00:20:50;97736.09;;;8.85;100.00
18795;BME280;29610;49.022;12.114;2023-05-02T00:23:39;97732.03;;;8.74;100.00
18795;BME280;29610;49.022;12.114;2023-05-02T00:26:28;97736.25;;;8.80;100.00
18795;BME280;29610;49.022;12.114;2023-05-02T00:29:20;97734.13;;;9.00;100.00
18795;BME280;29610;49.022;12.114;2023-05-02T00:32:11;97731.72;;;8.98;100.00
18795;BME280;29610;49.022;12.114;2023-05-02T00:34:59;97734.81;;;8.83;100.00
18795;BME280;29610;49.022;12.114;2023-05-02T00:37:49;97740.41;;;8.86;100.00
18795;BME280;29610;49.022;12.114;2023-05-02T00:40:45;97736.72;;;9.05;100.00
18795;BME280;29610;49.022;12.114;2023-05-02T00:43:34;97737.13;;;9.20;100.00
18795;BME280;29610;49.022;12.114;2023-05-02T00:46:26;97735.81;;;9.18;100.00
18795;BME280;29610;49.022;12.114;2023-05-02T00:49:16;97722.44;;;9.21;100.00
18795;BME280;29610;49.022;12.114;2023-05-02T00:52:05;97734.75;;;8.97;100.00
18795;BME280;29610;49.022;12.114;2023-05-02T00:54:55;97737.22;;;8.84;100.00
18795;BME280;29610;49.022;12.114;2023-05-02T00:57:44;97734.25;;;8.95;100.00
18795;BME280;29610;49.022;12.114;2023-05-02T01:00:54;97740.72;;;9.07;100.00
18795;BME280;29610;49.022;12.114;2023-05-02T01:04:01;97748.09;;;9.15;100.00
18795;BME280;29610;49.022;12.114;2023-05-02T01:07:11;97740.78;;;9.16;100.00
18795;BME280;29610;49.022;12.114;2023-05-02T01:10:31;97753.72;;;8.97;100.00
18795;BME280;29610;49.022;12.114;2023-05-02T01:13:28;97754.09;;;8.81;100.00
18795;BME280;29610;49.022;12.114;2023-05-02T01:16:21;97755.56;;;8.65;100.00
18795;BME280;29610;49.022;12.114;2023-05-02T01:19:24;97750.78;;;8.49;100.00
18795;BME280;29610;49.022;12.114;2023-05-02T01:22:17;97751.81;;;8.39;100.00
18795;BME280;29610;49.022;12.114;2023-05-02T01:25:25;97757.69;;;8.33;100.00
18795;BME280;29610;49.022;12.114;2023-05-02T01:28:47;97763.59;;;8.21;100.00
18795;BME280;29610;49.022;12.114;2023-05-02T01:31:40;97761.91;;;8.12;100.00
18795;BME280;29610;49.022;12.114;2023-05-02T01:34:32;97765.00;;;8.19;100.00
18795;BME280;29610;49.022;12.114;2023-05-02T01:37:24;97768.09;;;8.12;100.00
18795;BME280;29610;49.022;12.114;2023-05-02T01:40:19;97767.22;;;8.17;100.00
18795;BME280;29610;49.022;12.114;2023-05-02T01:43:10;97767.94;;;8.09;100.00
18795;BME280;29610;49.022;12.114;2023-05-02T01:46:06;97763.81;;;8.25;100.00
18795;BME280;29610;49.022;12.114;2023-05-02T01:48:58;97768.91;;;8.13;100.00
18795;BME280;29610;49.022;12.114;2023-05-02T01:51:50;97775.66;;;8.02;100.00
18795;BME280;29610;49.022;12.114;2023-05-02T01:54:40;97772.94;;;8.02;100.00
18795;BME280;29610;49.022;12.114;2023-05-02T01:57:31;97767.03;;;8.00;100.00
18795;BME280;29610;49.022;12.114;2023-05-02T02:00:21;97777.44;;;8.06;100.00
18795;BME280;29610;49.022;12.114;2023-05-02T02:03:13;97782.34;;;8.18;100.00
18795;BME280;29610;49.022;12.114;2023-05-02T02:06:04;97784.38;;;8.26;100.00
18795;BME280;29610;49.022;12.114;2023-05-02T02:08:54;97775.72;;;8.37;100.00
18795;BME280;29610;49.022;12.114;2023-05-02T02:11:49;97788.47;;;8.37;100.00
18795;BME280;29610;49.022;12.114;2023-05-02T02:14:45;97791.28;;;8.32;100.00
18795;BME280;29610;49.022;12.114;2023-05-02T02:17:41;97799.59;;;8.35;100.00
18795;BME280;29610;49.022;12.114;2023-05-02T02:20:34;97792.88;;;8.33;100.00
18795;BME280;29610;49.022;12.114;2023-05-02T02:23:27;97790.19;;;8.33;100.00
18795;BME280;29610;49.022;12.114;2023-05-02T02:26:18;97788.75;;;8.35;100.00
18795;BME280;29610;49.022;12.114;2023-05-02T02:29:08;97796.06;;;8.35;100.00
18795;BME280;29610;49.022;12.114;2023-05-02T02:31:57;97796.78;;;8.27;100.00
18795;BME280;29610;49.022;12.114;2023-05-02T02:34:46;97799.69;;;8.03;100.00
18795;BME280;29610;49.022;12.114;2023-05-02T02:37:45;97800.91;;;7.97;100.00
18795;BME280;29610;49.022;12.114;2023-05-02T02:40:44;97806.53;;;7.87;100.00
18795;BME280;29610;49.022;12.114;2023-05-02T02:43:44;97807.84;;;7.90;100.00
18795;BME280;29610;49.022;12.114;2023-05-02T02:46:49;97814.16;;;7.99;100.00
18795;BME280;29610;49.022;12.114;2023-05-02T02:49:48;97811.81;;;8.06;100.00
18795;BME280;29610;49.022;12.114;2023-05-02T02:52:52;97811.91;;;8.14;100.00
18795;BME280;29610;49.022;12.114;2023-05-02T02:55:47;97808.50;;;8.22;100.00
18795;BME280;29610;49.022;12.114;2023-05-02T02:58:49;97812.13;;;8.04;100.00
18795;BME280;29610;49.022;12.114;2023-05-02T03:01:55;97815.53;;;8.10;100.00
18795;BME280;29610;49.022;12.114;2023-05-02T03:04:51;97809.09;;;8.06;100.00
18795;BME280;29610;49.022;12.114;2023-05-02T03:07:43;97805.53;;;8.10;100.00
18795;BME280;29610;49.022;12.114;2023-05-02T03:10:33;97808.03;;;8.07;100.00
18795;BME280;29610;49.022;12.114;2023-05-02T03:13:22;97815.03;;;8.08;100.00
18795;BME280;29610;49.022;12.114;2023-05-02T03:16:34;97813.13;;;7.95;100.00
18795;BME280;29610;49.022;12.114;2023-05-02T03:19:26;97821.84;;;7.92;100.00
18795;BME280;29610;49.022;12.114;2023-05-02T03:22:16;97824.66;;;7.73;100.00
18795;BME280;29610;49.022;12.114;2023-05-02T03:25:08;97813.03;;;7.73;100.00
18795;BME280;29610;49.022;12.114;2023-05-02T03:28:01;97818.06;;;7.66;100.00
18795;BME280;29610;49.022;12.114;2023-05-02T03:30:50;97824.31;;;7.47;100.00
18795;BME280;29610;49.022;12.114;2023-05-02T03:33:40;97818.38;;;7.32;100.00
18795;BME280;29610;49.022;12.114;2023-05-02T03:36:28;97820.88;;;7.28;100.00
18795;BME280;29610;49.022;12.114;2023-05-02T03:39:18;97825.47;;;7.28;100.00
18795;BME280;29610;49.022;12.114;2023-05-02T03:42:09;97824.28;;;7.34;100.00
18795;BME280;29610;49.022;12.114;2023-05-02T03:44:58;97827.94;;;7.57;100.00
18795;BME280;29610;49.022;12.114;2023-05-02T03:47:48;97829.34;;;7.54;100.00
18795;BME280;29610;49.022;12.114;2023-05-02T03:50:37;97832.13;;;7.49;100.00
18795;BME280;29610;49.022;12.114;2023-05-02T03:53:26;97838.66;;;7.62;100.00
18795;BME280;29610;49.022;12.114;2023-05-02T03:56:18;97840.56;;;7.61;100.00
18795;BME280;29610;49.022;12.114;2023-05-02T03:59:18;97848.59;;;7.66;100.00
18795;BME280;29610;49.022;12.114;2023-05-02T04:02:08;97846.81;;;7.89;100.00
18795;BME280;29610;49.022;12.114;2023-05-02T04:05:02;97851.72;;;8.00;100.00
18795;BME280;29610;49.022;12.114;2023-05-02T04:07:51;97844.91;;;7.89;100.00
18795;BME280;29610;49.022;12.114;2023-05-02T04:10:40;97856.13;;;7.83;100.00
18795;BME280;29610;49.022;12.114;2023-05-02T04:13:31;97858.41;;;7.76;100.00
18795;BME280;29610;49.022;12.114;2023-05-02T04:16:22;97854.13;;;7.75;100.00
18795;BME280;29610;49.022;12.114;2023-05-02T04:19:14;97869.06;;;7.86;100.00
18795;BME280;29610;49.022;12.114;2023-05-02T04:22:03;97864.06;;;7.93;100.00
18795;BME280;29610;49.022;12.114;2023-05-02T04:24:56;97868.78;;;8.01;100.00
18795;BME280;29610;49.022;12.114;2023-05-02T04:27:46;97873.09;;;8.29;100.00
18795;BME280;29610;49.022;12.114;2023-05-02T04:30:38;97879.41;;;8.38;100.00
18795;BME280;29610;49.022;12.114;2023-05-02T04:33:31;97876.69;;;8.51;100.00
18795;BME280;29610;49.022;12.114;2023-05-02T04:36:21;97881.59;;;8.63;100.00
18795;BME280;29610;49.022;12.114;2023-05-02T04:39:10;97880.75;;;8.76;100.00
18795;BME280;29610;49.022;12.114;2023-05-02T04:42:05;97887.44;;;8.92;100.00
18795;BME280;29610;49.022;12.114;2023-05-02T04:45:01;97890.78;;;9.11;100.00
18795;BME280;29610;49.022;12.114;2023-05-02T04:47:51;97889.31;;;9.27;100.00
18795;BME280;29610;49.022;12.114;2023-05-02T04:50:43;97895.03;;;9.48;100.00
18795;BME280;29610;49.022;12.114;2023-05-02T04:53:32;97896.66;;;9.71;100.00
18795;BME280;29610;49.022;12.114;2023-05-02T04:56:23;97909.09;;;9.94;100.00
18795;BME280;29610;49.022;12.114;2023-05-02T04:59:12;97908.00;;;10.03;100.00
18795;BME280;29610;49.022;12.114;2023-05-02T05:02:02;97907.47;;;10.23;100.00
18795;BME280;29610;49.022;12.114;2023-05-02T05:04:51;97906.91;;;10.44;100.00
18795;BME280;29610;49.022;12.114;2023-05-02T05:07:42;97915.44;;;10.59;100.00
18795;BME280;29610;49.022;12.114;2023-05-02T05:10:32;97921.22;;;10.75;100.00
18795;BME280;29610;49.022;12.114;2023-05-02T05:13:23;97921.41;;;10.87;100.00
18795;BME280;29610;49.022;12.114;2023-05-02T05:16:13;97924.63;;;10.97;100.00
18795;BME280;29610;49.022;12.114;2023-05-02T05:19:03;97917.13;;;11.11;100.00
18795;BME280;29610;49.022;12.114;2023-05-02T05:21:53;97923.84;;;11.22;100.00
18795;BME280;29610;49.022;12.114;2023-05-02T05:24:51;97917.78;;;11.17;100.00
18795;BME280;29610;49.022;12.114;2023-05-02T05:27:42;97923.38;;;11.20;100.00
18795;BME280;29610;49.022;12.114;2023-05-02T05:30:31;97920.66;;;11.54;100.00
18795;BME280;29610;49.022;12.114;2023-05-02T05:33:22;97927.38;;;11.65;100.00
18795;BME280;29610;49.022;12.114;2023-05-02T05:36:13;97935.22;;;11.67;100.00
18795;BME280;29610;49.022;12.114;2023-05-02T05:39:02;97935.38;;;11.45;100.00
18795;BME280;29610;49.022;12.114;2023-05-02T05:41:54;97933.81;;;11.69;100.00
18795;BME280;29610;49.022;12.114;2023-05-02T05:44:44;97937.63;;;11.68;100.00
18795;BME280;29610;49.022;12.114;2023-05-02T05:47:35;97941.63;;;11.79;100.00
18795;BME280;29610;49.022;12.114;2023-05-02T05:50:25;97939.31;;;12.07;100.00
18795;BME280;29610;49.022;12.114;2023-05-02T05:53:15;97938.59;;;12.27;100.00
18795;BME280;29610;49.022;12.114;2023-05-02T05:56:08;97944.41;;;12.63;100.00
18795;BME280;29610;49.022;12.114;2023-05-02T05:59:01;97948.00;;;12.84;100.00
18795;BME280;29610;49.022;12.114;2023-05-02T06:01:51;97956.75;;;12.61;100.00
18795;BME280;29610;49.022;12.114;2023-05-02T06:04:42;97951.47;;;12.56;100.00
18795;BME280;29610;49.022;12.114;2023-05-02T06:07:34;97953.28;;;13.10;100.00
18795;BME280;29610;49.022;12.114;2023-05-02T06:10:24;97952.88;;;13.49;100.00
18795;BME280;29610;49.022;12.114;2023-05-02T06:13:13;97949.03;;;13.83;100.00
18795;BME280;29610;49.022;12.114;2023-05-02T06:16:06;97952.22;;;14.17;100.00
18795;BME280;29610;49.022;12.114;2023-05-02T06:18:55;97956.75;;;14.46;100.00
18795;BME280;29610;49.022;12.114;2023-05-02T06:21:44;97947.09;;;14.73;100.00
18795;BME280;29610;49.022;12.114;2023-05-02T06:24:33;97948.22;;;14.84;100.00
18795;BME280;29610;49.022;12.114;2023-05-02T06:27:24;97950.13;;;15.19;100.00
18795;BME280;29610;49.022;12.114;2023-05-02T06:30:13;97953.56;;;14.92;100.00
18795;BME280;29610;49.022;12.114;2023-05-02T06:33:05;97954.91;;;15.22;100.00
18795;BME280;29610;49.022;12.114;2023-05-02T06:35:54;97971.69;;;15.21;100.00
18795;BME280;29610;49.022;12.114;2023-05-02T06:38:46;97970.97;;;15.48;100.00
18795;BME280;29610;49.022;12.114;2023-05-02T06:41:36;97976.84;;;15.74;100.00
18795;BME280;29610;49.022;12.114;2023-05-02T06:44:25;97977.09;;;15.69;100.00
18795;BME280;29610;49.022;12.114;2023-05-02T06:47:14;97977.09;;;15.69;100.00
18795;BME280;29610;49.022;12.114;2023-05-02T06:50:07;97988.31;;;15.91;100.00
18795;BME280;29610;49.022;12.114;2023-05-02T06:52:57;97984.84;;;16.06;100.00
18795;BME280;29610;49.022;12.114;2023-05-02T06:55:46;97976.88;;;16.01;100.00
18795;BME280;29610;49.022;12.114;2023-05-02T06:58:35;97982.16;;;16.38;100.00
18795;BME280;29610;49.022;12.114;2023-05-02T07:01:26;97983.22;;;16.33;100.00
18795;BME280;29610;49.022;12.114;2023-05-02T07:04:15;97990.44;;;16.53;100.00
18795;BME280;29610;49.022;12.114;2023-05-02T07:07:06;97993.09;;;16.81;100.00
18795;BME280;29610;49.022;12.114;2023-05-02T07:09:58;97993.91;;;16.97;100.00
18795;BME280;29610;49.022;12.114;2023-05-02T07:12:47;97993.19;;;17.00;100.00
18795;BME280;29610;49.022;12.114;2023-05-02T07:15:36;98001.88;;;17.02;100.00
18795;BME280;29610;49.022;12.114;2023-05-02T07:18:30;98001.13;;;17.20;100.00
18795;BME280;29610;49.022;12.114;2023-05-02T07:21:19;98009.81;;;17.22;100.00
18795;BME280;29610;49.022;12.114;2023-05-02T07:24:10;98011.03;;;17.25;100.00
18795;BME280;29610;49.022;12.114;2023-05-02T07:30:49;98016.47;;;17.21;100.00
18795;BME280;29610;49.022;12.114;2023-05-02T07:33:38;98019.09;;;17.33;100.00
18795;BME280;29610;49.022;12.114;2023-05-02T07:36:28;98008.28;;;17.56;100.00
18795;BME280;29610;49.022;12.114;2023-05-02T07:39:18;98017.56;;;18.05;100.00
18795;BME280;29610;49.022;12.114;2023-05-02T07:42:08;98018.28;;;18.59;100.00
18795;BME280;29610;49.022;12.114;2023-05-02T07:44:57;98020.72;;;18.64;100.00
18795;BME280;29610;49.022;12.114;2023-05-02T07:47:47;98017.84;;;18.57;100.00
18795;BME280;29610;49.022;12.114;2023-05-02T07:50:37;98017.19;;;18.64;100.00
18795;BME280;29610;49.022;12.114;2023-05-02T07:53:28;98021.06;;;18.82;100.00
18795;BME280;29610;49.022;12.114;2023-05-02T07:56:19;98028.88;;;19.03;100.00
18795;BME280;29610;49.022;12.114;2023-05-02T07:59:10;98033.41;;;19.14;100.00
18795;BME280;29610;49.022;12.114;2023-05-02T08:01:59;98037.50;;;19.24;100.00
18795;BME280;29610;49.022;12.114;2023-05-02T08:04:48;98030.13;;;18.41;100.00
18795;BME280;29610;49.022;12.114;2023-05-02T08:07:37;98037.06;;;18.54;100.00
18795;BME280;29610;49.022;12.114;2023-05-02T08:10:27;98031.56;;;18.54;100.00
18795;BME280;29610;49.022;12.114;2023-05-02T08:13:18;98030.66;;;18.91;100.00
18795;BME280;29610;49.022;12.114;2023-05-02T08:16:09;98037.41;;;18.14;100.00
18795;BME280;29610;49.022;12.114;2023-05-02T08:18:58;98033.66;;;18.60;100.00
18795;BME280;29610;49.022;12.114;2023-05-02T08:21:47;98033.88;;;18.52;100.00
18795;BME280;29610;49.022;12.114;2023-05-02T08:24:38;98040.38;;;18.63;100.00
18795;BME280;29610;49.022;12.114;2023-05-02T08:27:27;98044.88;;;18.93;100.00
18795;BME280;29610;49.022;12.114;2023-05-02T08:30:17;98042.41;;;18.88;100.00
18795;BME280;29610;49.022;12.114;2023-05-02T08:33:07;98048.81;;;19.19;100.00
18795;BME280;29610;49.022;12.114;2023-05-02T08:35:56;98042.84;;;19.36;100.00
18795;BME280;29610;49.022;12.114;2023-05-02T08:38:46;98055.97;;;19.23;100.00
18795;BME280;29610;49.022;12.114;2023-05-02T08:41:36;98060.22;;;19.40;100.00
18795;BME280;29610;49.022;12.114;2023-05-02T08:44:26;98055.34;;;19.30;100.00
18795;BME280;29610;49.022;12.114;2023-05-02T08:47:19;98063.06;;;19.43;100.00
18795;BME280;29610;49.022;12.114;2023-05-02T08:50:09;98061.75;;;19.37;100.00
18795;BME280;29610;49.022;12.114;2023-05-02T08:53:00;98067.94;;;19.08;100.00
18795;BME280;29610;49.022;12.114;2023-05-02T08:55:49;98068.91;;;18.97;100.00
18795;BME280;29610;49.022;12.114;2023-05-02T08:58:40;98071.78;;;18.24;100.00
18795;BME280;29610;49.022;12.114;2023-05-02T09:01:30;98082.25;;;18.53;100.00
18795;BME280;29610;49.022;12.114;2023-05-02T09:04:27;98080.88;;;17.90;100.00
18795;BME280;29610;49.022;12.114;2023-05-02T09:07:18;98085.03;;;17.99;100.00
18795;BME280;29610;49.022;12.114;2023-05-02T09:10:10;98081.84;;;18.35;100.00
18795;BME280;29610;49.022;12.114;2023-05-02T09:13:28;98081.09;;;18.35;100.00
18795;BME280;29610;49.022;12.114;2023-05-02T09:16:20;98093.22;;;18.34;100.00
18795;BME280;29610;49.022;12.114;2023-05-02T09:19:24;98093.84;;;18.43;100.00
18795;BME280;29610;49.022;12.114;2023-05-02T09:22:22;98091.34;;;18.19;100.00
18795;BME280;29610;49.022;12.114;2023-05-02T09:25:11;98103.72;;;17.75;100.00
18795;BME280;29610;49.022;12.114;2023-05-02T09:28:02;98094.25;;;17.72;100.00
18795;BME280;29610;49.022;12.114;2023-05-02T09:31:06;98101.81;;;17.60;100.00
18795;BME280;29610;49.022;12.114;2023-05-02T09:33:56;98110.88;;;17.79;100.00
18795;BME280;29610;49.022;12.114;2023-05-02T09:36:50;98107.75;;;17.96;100.00
18795;BME280;29610;49.022;12.114;2023-05-02T09:40:04;98111.00;;;17.05;100.00
18795;BME280;29610;49.022;12.114;2023-05-02T09:42:55;98112.94;;;17.67;100.00
18795;BME280;29610;49.022;12.114;2023-05-02T09:45:56;98115.41;;;17.25;100.00
18795;BME280;29610;49.022;12.114;2023-05-02T09:48:52;98111.59;;;17.76;100.00
18795;BME280;29610;49.022;12.114;2023-05-02T09:51:45;98113.81;;;18.59;100.00
18795;BME280;29610;49.022;12.114;2023-05-02T09:54:40;98109.00;;;18.37;100.00
18795;BME280;29610;49.022;12.114;2023-05-02T09:57:39;98113.09;;;17.89;100.00
18795;BME280;29610;49.022;12.114;2023-05-02T10:00:40;98118.66;;;17.93;100.00
18795;BME280;29610;49.022;12.114;2023-05-02T10:03:29;98112.38;;;18.11;100.00
18795;BME280;29610;49.022;12.114;2023-05-02T10:06:20;98117.75;;;18.04;100.00
18795;BME280;29610;49.022;12.114;2023-05-02T10:09:10;98116.75;;;18.12;100.00
18795;BME280;29610;49.022;12.114;2023-05-02T10:12:06;98118.00;;;18.34;100.00
18795;BME280;29610;49.022;12.114;2023-05-02T10:15:02;98115.53;;;18.29;100.00
18795;BME280;29610;49.022;12.114;2023-05-02T10:17:54;98117.91;;;18.30;100.00
18795;BME280;29610;49.022;12.114;2023-05-02T10:20:56;98125.00;;;17.31;100.00
18795;BME280;29610;49.022;12.114;2023-05-02T10:23:46;98127.31;;;17.13;100.00
18795;BME280;29610;49.022;12.114;2023-05-02T10:26:36;98120.59;;;17.58;100.00
18795;BME280;29610;49.022;12.114;2023-05-02T10:29:30;98121.00;;;17.75;100.00
18795;BME280;29610;49.022;12.114;2023-05-02T10:32:21;98126.25;;;17.65;100.00
18795;BME280;29610;49.022;12.114;2023-05-02T10:35:12;98125.84;;;17.97;100.00
18795;BME280;29610;49.022;12.114;2023-05-02T10:38:04;98126.63;;;17.98;100.00
18795;BME280;29610;49.022;12.114;2023-05-02T10:40:59;98128.66;;;18.01;100.00
18795;BME280;29610;49.022;12.114;2023-05-02T10:43:49;98121.41;;;18.65;100.00
18795;BME280;29610;49.022;12.114;2023-05-02T10:46:40;98118.00;;;19.14;100.00
18795;BME280;29610;49.022;12.114;2023-05-02T10:49:30;98113.38;;;18.76;100.00
18795;BME280;29610;49.022;12.114;2023-05-02T10:52:28;98115.16;;;19.07;100.00
18795;BME280;29610;49.022;12.114;2023-05-02T10:55:21;98120.44;;;18.96;100.00
18795;BME280;29610;49.022;12.114;2023-05-02T10:58:21;98114.28;;;19.25;100.00
18795;BME280;29610;49.022;12.114;2023-05-02T11:01:35;98115.47;;;18.25;100.00
18795;BME280;29610;49.022;12.114;2023-05-02T11:05:00;98105.03;;;19.14;100.00
18795;BME280;29610;49.022;12.114;2023-05-02T11:08:29;98106.66;;;19.38;100.00
18795;BME280;29610;49.022;12.114;2023-05-02T11:11:38;98108.59;;;19.86;100.00
18795;BME280;29610;49.022;12.114;2023-05-02T11:14:44;98101.97;;;21.12;100.00
18795;BME280;29610;49.022;12.114;2023-05-02T11:17:58;98102.41;;;22.23;100.00
18795;BME280;29610;49.022;12.114;2023-05-02T11:20:49;98099.53;;;22.05;100.00
18795;BME280;29610;49.022;12.114;2023-05-02T11:23:38;98091.91;;;21.85;100.00
18795;BME280;29610;49.022;12.114;2023-05-02T11:26:29;98095.41;;;21.78;100.00
18795;BME280;29610;49.022;12.114;2023-05-02T11:29:55;98088.03;;;22.82;100.00
18795;BME280;29610;49.022;12.114;2023-05-02T11:33:16;98095.41;;;22.46;100.00
18795;BME280;29610;49.022;12.114;2023-05-02T11:36:08;98092.41;;;21.50;100.00
18795;BME280;29610;49.022;12.114;2023-05-02T11:38:58;98088.59;;;21.65;100.00
18795;BME280;29610;49.022;12.114;2023-05-02T11:41:47;98083.38;;;21.56;100.00
18795;BME280;29610;49.022;12.114;2023-05-02T11:44:55;98083.91;;;22.41;100.00
18795;BME280;29610;49.022;12.114;2023-05-02T11:47:46;98079.03;;;24.01;100.00
18795;BME280;29610;49.022;12.114;2023-05-02T11:50:41;98080.22;;;23.23;100.00
18795;BME280;29610;49.022;12.114;2023-05-02T11:53:40;98081.03;;;23.72;100.00
18795;BME280;29610;49.022;12.114;2023-05-02T11:56:29;98078.13;;;22.70;100.00
18795;BME280;29610;49.022;12.114;2023-05-02T11:59:18;98086.44;;;21.95;100.00
18795;BME280;29610;49.022;12.114;2023-05-02T12:02:07;98077.34;;;22.80;100.00
18795;BME280;29610;49.022;12.114;2023-05-02T12:04:57;98075.59;;;22.41;100.00
18795;BME280;29610;49.022;12.114;2023-05-02T12:07:47;98076.28;;;22.17;100.00
18795;BME280;29610;49.022;12.114;2023-05-02T12:10:37;98078.25;;;23.30;100.00
18795;BME280;29610;49.022;12.114;2023-05-02T12:13:28;98070.34;;;23.53;96.63
18795;BME280;29610;49.022;12.114;2023-05-02T12:16:18;98059.34;;;24.64;86.86
18795;BME280;29610;49.022;12.114;2023-05-02T12:19:07;98068.94;;;24.52;87.69
18795;BME280;29610;49.022;12.114;2023-05-02T12:21:57;98074.38;;;22.24;99.02
18795;BME280;29610;49.022;12.114;2023-05-02T12:24:47;98076.22;;;22.06;100.00
18795;BME280;29610;49.022;12.114;2023-05-02T12:27:38;98067.38;;;22.58;100.00
18795;BME280;29610;49.022;12.114;2023-05-02T12:30:28;98064.94;;;22.43;100.00
18795;BME280;29610;49.022;12.114;2023-05-02T12:33:18;98064.47;;;22.27;100.00
18795;BME280;29610;49.022;12.114;2023-05-02T12:36:10;98075.41;;;22.84;100.00
18795;BME280;29610;49.022;12.114;2023-05-02T12:39:00;98059.88;;;24.34;92.10
18795;BME280;29610;49.022;12.114;2023-05-02T12:41:51;98064.69;;;24.20;81.37
18795;BME280;29610;49.022;12.114;2023-05-02T12:44:43;98063.72;;;22.33;89.81
18795;BME280;29610;49.022;12.114;2023-05-02T12:47:44;98070.63;;;21.96;100.00
18795;BME280;29610;49.022;12.114;2023-05-02T12:50:35;98070.81;;;21.66;100.00
18795;BME280;29610;49.022;12.114;2023-05-02T12:53:38;98068.63;;;21.89;100.00
18795;BME280;29610;49.022;12.114;2023-05-02T12:56:28;98066.16;;;21.26;100.00
18795;BME280;29610;49.022;12.114;2023-05-02T12:59:28;98076.28;;;19.34;100.00
18795;BME280;29610;49.022;12.114;2023-05-02T13:02:18;98073.13;;;19.84;100.00
18795;BME280;29610;49.022;12.114;2023-05-02T13:05:14;98071.75;;;20.27;100.00
18795;BME280;29610;49.022;12.114;2023-05-02T13:08:04;98075.38;;;20.64;100.00
18795;BME280;29610;49.022;12.114;2023-05-02T13:10:53;98075.47;;;20.75;100.00
18795;BME280;29610;49.022;12.114;2023-05-02T13:13:42;98075.94;;;20.80;100.00
18795;BME280;29610;49.022;12.114;2023-05-02T13:16:31;98068.94;;;21.30;100.00
18795;BME280;29610;49.022;12.114;2023-05-02T13:19:25;98065.47;;;20.60;100.00
18795;BME280;29610;49.022;12.114;2023-05-02T13:22:18;98069.38;;;20.25;100.00
18795;BME280;29610;49.022;12.114;2023-05-02T13:25:08;98064.56;;;20.89;100.00
18795;BME280;29610;49.022;12.114;2023-05-02T13:27:57;98069.19;;;21.61;100.00
18795;BME280;29610;49.022;12.114;2023-05-02T13:30:46;98071.41;;;21.89;98.76
18795;BME280;29610;49.022;12.114;2023-05-02T13:33:35;98070.16;;;22.58;97.70
18795;BME280;29610;49.022;12.114;2023-05-02T13:36:26;98068.34;;;22.12;100.00
18795;BME280;29610;49.022;12.114;2023-05-02T13:39:15;98066.69;;;21.97;98.28
18795;BME280;29610;49.022;12.114;2023-05-02T13:42:04;98064.34;;;22.02;100.00
18795;BME280;29610;49.022;12.114;2023-05-02T13:44:54;98059.63;;;22.06;95.00
18795;BME280;29610;49.022;12.114;2023-05-02T13:47:44;98055.31;;;21.54;100.00
18795;BME280;29610;49.022;12.114;2023-05-02T13:50:33;98056.69;;;21.82;100.00
18795;BME280;29610;49.022;12.114;2023-05-02T13:53:27;98053.56;;;22.62;97.83
18795;BME280;29610;49.022;12.114;2023-05-02T13:56:16;98052.59;;;21.14;100.00
18795;BME280;29610;49.022;12.114;2023-05-02T13:59:06;98058.41;;;20.66;100.00
18795;BME280;29610;49.022;12.114;2023-05-02T14:01:57;98057.41;;;21.75;100.00
18795;BME280;29610;49.022;12.114;2023-05-02T14:04:48;98063.28;;;21.16;100.00
18795;BME280;29610;49.022;12.114;2023-05-02T14:07:37;98063.19;;;21.49;100.00
18795;BME280;29610;49.022;12.114;2023-05-02T14:10:28;98065.00;;;21.31;100.00
18795;BME280;29610;49.022;12.114;2023-05-02T14:13:17;98063.22;;;21.56;100.00
18795;BME280;29610;49.022;12.114;2023-05-02T14:29:46;98053.63;;;21.94;95.15
18795;BME280;29610;49.022;12.114;2023-05-02T14:32:48;98047.59;;;22.60;93.86
18795;BME280;29610;49.022;12.114;2023-05-02T14:35:59;98045.72;;;23.09;88.28
18795;BME280;29610;49.022;12.114;2023-05-02T14:38:57;98039.41;;;23.16;81.37
18795;BME280;29610;49.022;12.114;2023-05-02T14:41:55;98043.97;;;22.38;89.25
18795;BME280;29610;49.022;12.114;2023-05-02T14:44:50;98045.31;;;22.97;86.02
18795;BME280;29610;49.022;12.114;2023-05-02T14:47:51;98049.31;;;23.21;84.21
18795;BME280;29610;49.022;12.114;2023-05-02T14:50:42;98048.84;;;22.76;82.00
18795;BME280;29610;49.022;12.114;2023-05-02T14:53:39;98046.47;;;22.71;82.49
18795;BME280;29610;49.022;12.114;2023-05-02T14:56:42;98052.66;;;21.72;90.77
18795;BME280;29610;49.022;12.114;2023-05-02T15:00:28;98053.19;;;20.57;90.62
18795;BME280;29610;49.022;12.114;2023-05-02T15:03:20;98055.06;;;21.23;90.01
18795;BME280;29610;49.022;12.114;2023-05-02T15:06:45;98063.19;;;21.49;85.83
18795;BME280;29610;49.022;12.114;2023-05-02T15:09:42;98055.53;;;21.32;95.03
18795;BME280;29610;49.022;12.114;2023-05-02T15:12:37;98062.03;;;20.73;99.28
18795;BME280;29610;49.022;12.114;2023-05-02T15:15:33;98062.38;;;20.65;100.00
18795;BME280;29610;49.022;12.114;2023-05-02T15:18:37;98069.28;;;20.85;100.00